Time;durP1;ratioP1;P1;durP2;ratioP2;P2;SDS_P1;SDS_P2;PMS_P1;PMS_P2;Temp;Humidity;BMP_temperature;BMP_pressure;BME280_temperature;BME280_humidity;BME280_pressure;Samples;Min_cycle;Max_cycle;Signal;HPM_P1;HPM_P2
2023/08/05 00:00:43;;;;;;;5.50;4.30;;;;;;;;;;5065103;28;20212;-63
2023/08/05 00:03:09;;;;;;;6.10;4.28;;;;;;;;;;5065204;28;20197;-63
2023/08/05 00:05:37;;;;;;;5.13;4.40;;;;;;;;;;5064690;28;20394;-63
2023/08/05 00:08:03;;;;;;;4.53;4.15;;;;;;;;;;5065621;28;20197;-63
2023/08/05 00:10:31;;;;;;;4.97;4.28;;;;;;;;;;5064873;28;20203;-63
2023/08/05 00:12:57;;;;;;;4.32;3.92;;;;;;;;;;5065030;28;20197;-63
2023/08/05 00:15:23;;;;;;;4.20;3.90;;;;;;;;;;5064701;28;20201;-63
2023/08/05 00:17:50;;;;;;;4.00;3.70;;;;;;;;;;5064860;28;20260;-63
2023/08/05 00:20:16;;;;;;;4.25;3.80;;;;;;;;;;5065151;28;20496;-63
2023/08/05 00:22:42;;;;;;;4.05;3.80;;;;;;;;;;5064749;28;20212;-63
2023/08/05 00:25:09;;;;;;;4.25;3.85;;;;;;;;;;5064547;28;20205;-63
2023/08/05 00:27:36;;;;;;;7.38;3.95;;;;;;;;;;5064398;28;20217;-63
2023/08/05 00:30:03;;;;;;;5.15;4.18;;;;;;;;;;5064704;28;20201;-64
2023/08/05 00:32:30;;;;;;;6.63;4.20;;;;;;;;;;5064341;28;20221;-63
2023/08/05 00:34:56;;;;;;;4.10;3.80;;;;;;;;;;5064368;28;20418;-63
2023/08/05 00:37:22;;;;;;;5.93;3.78;;;;;;;;;;5064334;28;20193;-63
2023/08/05 00:39:48;;;;;;;6.05;3.80;;;;;;;;;;5064628;28;20314;-63
2023/08/05 00:42:18;;;;;;;4.38;4.00;;;;;;;;;;5064480;28;20203;-63
2023/08/05 00:44:46;;;;;;;4.20;3.90;;;;;;;;;;5064372;28;20763;-63
2023/08/05 00:47:12;;;;;;;4.57;4.10;;;;;;;;;;5064131;28;20237;-63
2023/08/05 00:49:38;;;;;;;4.18;3.83;;;;;;;;;;5063152;28;20213;-63
2023/08/05 00:52:06;;;;;;;4.93;4.53;;;;;;;;;;5064137;28;20197;-63
2023/08/05 00:54:32;;;;;;;4.10;3.90;;;;;;;;;;5064102;28;20437;-63
2023/08/05 00:56:59;;;;;;;4.35;3.95;;;;;;;;;;5064286;28;20207;-63
2023/08/05 00:59:25;;;;;;;8.02;3.95;;;;;;;;;;5063957;28;20201;-63
2023/08/05 01:01:53;;;;;;;4.47;4.15;;;;;;;;;;5064018;28;20205;-63
2023/08/05 01:04:19;;;;;;;4.82;4.00;;;;;;;;;;5063711;28;20205;-63
2023/08/05 01:06:45;;;;;;;3.75;3.55;;;;;;;;;;5063722;28;20229;-63
2023/08/05 01:09:11;;;;;;;4.28;3.88;;;;;;;;;;5063879;28;20220;-63
2023/08/05 01:11:38;;;;;;;5.47;4.13;;;;;;;;;;5063623;28;20212;-63
2023/08/05 01:14:04;;;;;;;4.10;3.70;;;;;;;;;;5063654;28;20204;-63
2023/08/05 01:16:30;;;;;;;5.13;4.10;;;;;;;;;;5063706;28;20441;-63
2023/08/05 01:18:58;;;;;;;5.18;3.95;;;;;;;;;;5063629;28;20504;-63
2023/08/05 01:21:33;;;;;;;8.10;4.18;;;;;;;;;;5063807;28;20201;-63
2023/08/05 01:24:05;;;;;;;4.32;3.53;;;;;;;;;;5056503;28;20203;-63
2023/08/05 01:26:33;;;;;;;4.05;3.60;;;;;;;;;;5063515;28;20228;-63
2023/08/05 01:28:59;;;;;;;7.80;3.88;;;;;;;;;;5063425;28;20224;-63
2023/08/05 01:31:26;;;;;;;4.32;3.92;;;;;;;;;;5063419;28;20527;-63
2023/08/05 01:33:53;;;;;;;5.18;4.15;;;;;;;;;;5054900;28;20212;-63
2023/08/05 01:36:19;;;;;;;4.00;3.72;;;;;;;;;;5063442;28;20505;-63
2023/08/05 01:38:46;;;;;;;6.60;3.97;;;;;;;;;;5063361;28;20508;-63
2023/08/05 01:41:12;;;;;;;5.30;4.20;;;;;;;;;;5063212;28;20240;-63
2023/08/05 01:43:40;;;;;;;3.92;3.63;;;;;;;;;;5062683;28;20205;-63
2023/08/05 01:46:06;;;;;;;4.50;4.10;;;;;;;;;;5063388;28;20197;-63
2023/08/05 01:48:32;;;;;;;4.03;3.72;;;;;;;;;;5063153;28;20540;-63
2023/08/05 01:50:59;;;;;;;4.28;3.97;;;;;;;;;;5063097;28;20197;-63
2023/08/05 01:53:25;;;;;;;7.10;3.80;;;;;;;;;;5062876;28;20205;-63
2023/08/05 01:55:51;;;;;;;4.18;3.42;;;;;;;;;;5062820;28;20203;-63
2023/08/05 01:58:19;;;;;;;5.07;3.30;;;;;;;;;;5062887;28;20201;-63
2023/08/05 02:00:51;;;;;;;4.20;3.33;;;;;;;;;;5062700;28;20517;-63
2023/08/05 02:03:17;;;;;;;5.90;3.30;;;;;;;;;;5062945;28;20197;-63
2023/08/05 02:05:43;;;;;;;4.50;3.60;;;;;;;;;;5062699;28;20208;-63
2023/08/05 02:08:09;;;;;;;4.40;3.50;;;;;;;;;;5062685;28;20219;-63
2023/08/05 02:10:37;;;;;;;3.67;3.38;;;;;;;;;;5062540;28;20423;-63
2023/08/05 02:13:04;;;;;;;5.40;3.45;;;;;;;;;;5062795;28;20264;-63
2023/08/05 02:15:30;;;;;;;3.80;3.45;;;;;;;;;;5062480;28;20264;-63
2023/08/05 02:17:58;;;;;;;11.85;3.80;;;;;;;;;;5062609;28;20193;-63
2023/08/05 02:20:24;;;;;;;7.70;3.60;;;;;;;;;;5062626;28;20197;-63
2023/08/05 02:22:50;;;;;;;3.55;3.33;;;;;;;;;;5062394;28;20197;-63
2023/08/05 02:25:17;;;;;;;3.92;3.47;;;;;;;;;;5062165;28;20197;-63
2023/08/05 02:27:43;;;;;;;6.60;3.95;;;;;;;;;;5062224;28;20554;-63
2023/08/05 02:30:09;;;;;;;4.75;3.78;;;;;;;;;;5062670;28;20204;-63
2023/08/05 02:32:36;;;;;;;4.90;3.80;;;;;;;;;;5062279;28;20197;-63
2023/08/05 02:35:04;;;;;;;6.18;3.92;;;;;;;;;;5062146;28;20396;-63
2023/08/05 02:37:30;;;;;;;5.32;3.97;;;;;;;;;;5062307;28;20285;-63
2023/08/05 02:39:56;;;;;;;4.22;3.55;;;;;;;;;;5054073;28;20205;-63
2023/08/05 02:42:22;;;;;;;4.35;3.55;;;;;;;;;;5062181;28;20596;-63
2023/08/05 02:44:50;;;;;;;5.40;4.05;;;;;;;;;;5061923;28;20244;-63
2023/08/05 02:47:16;;;;;;;5.22;4.07;;;;;;;;;;5061968;28;20421;-63
2023/08/05 02:49:43;;;;;;;5.80;3.88;;;;;;;;;;5061925;28;20213;-63
2023/08/05 02:52:10;;;;;;;3.65;3.35;;;;;;;;;;5061876;28;20531;-63
2023/08/05 02:54:36;;;;;;;3.80;3.60;;;;;;;;;;5062098;28;20209;-63
2023/08/05 02:57:03;;;;;;;4.80;3.85;;;;;;;;;;5061939;28;20193;-63
2023/08/05 02:59:29;;;;;;;6.00;4.00;;;;;;;;;;5061846;28;20197;-63
2023/08/05 03:01:55;;;;;;;4.13;3.50;;;;;;;;;;5061886;28;20526;-63
2023/08/05 03:04:22;;;;;;;4.72;3.90;;;;;;;;;;5061758;28;20197;-63
2023/08/05 03:06:48;;;;;;;7.68;3.83;;;;;;;;;;5061523;28;20268;-63
2023/08/05 03:09:15;;;;;;;4.72;3.95;;;;;;;;;;5062019;28;20519;-63
2023/08/05 03:11:42;;;;;;;5.65;4.20;;;;;;;;;;5061804;28;20201;-63
2023/08/05 03:14:08;;;;;;;6.75;4.43;;;;;;;;;;5061182;28;20214;-63
2023/08/05 03:16:34;;;;;;;5.03;4.53;;;;;;;;;;5061676;28;20299;-63
2023/08/05 03:19:01;;;;;;;4.55;4.32;;;;;;;;;;5061659;28;20197;-63
2023/08/05 03:21:27;;;;;;;4.60;4.20;;;;;;;;;;5061700;28;20197;-63
2023/08/05 03:23:53;;;;;;;5.13;4.13;;;;;;;;;;5061585;28;20208;-63
2023/08/05 03:26:21;;;;;;;4.38;3.97;;;;;;;;;;5061898;28;20198;-63
2023/08/05 03:28:47;;;;;;;4.85;4.00;;;;;;;;;;5061585;28;20403;-63
2023/08/05 03:31:13;;;;;;;5.85;4.15;;;;;;;;;;5061649;28;20197;-63
2023/08/05 03:33:39;;;;;;;4.75;4.25;;;;;;;;;;5061220;28;20208;-63
2023/08/05 03:36:06;;;;;;;6.65;4.40;;;;;;;;;;5061536;28;20196;-63
2023/08/05 03:38:32;;;;;;;5.43;4.93;;;;;;;;;;5061747;28;20247;-63
2023/08/05 03:41:01;;;;;;;4.30;3.90;;;;;;;;;;5053510;28;20197;-63
2023/08/05 03:43:28;;;;;;;9.73;4.72;;;;;;;;;;5061364;28;20197;-63
2023/08/05 03:45:54;;;;;;;4.65;3.63;;;;;;;;;;5061320;28;20205;-63
2023/08/05 03:48:21;;;;;;;4.25;3.88;;;;;;;;;;5061248;28;20412;-63
2023/08/05 03:50:47;;;;;;;6.80;4.70;;;;;;;;;;5061398;28;20208;-63
2023/08/05 03:53:13;;;;;;;6.28;4.35;;;;;;;;;;5061389;28;20421;-63
2023/08/05 03:55:39;;;;;;;8.05;4.25;;;;;;;;;;5061238;28;20539;-63
2023/08/05 03:58:07;;;;;;;7.13;4.65;;;;;;;;;;5061435;28;20197;-63
2023/08/05 04:00:36;;;;;;;6.53;5.15;;;;;;;;;;5061352;28;20251;-63
2023/08/05 04:03:02;;;;;;;5.32;4.80;;;;;;;;;;5053324;28;20221;-63
2023/08/05 04:05:29;;;;;;;5.22;4.53;;;;;;;;;;5061314;28;20373;-63
2023/08/05 04:07:55;;;;;;;6.68;5.10;;;;;;;;;;5061162;28;20235;-63
2023/08/05 04:10:22;;;;;;;5.07;4.57;;;;;;;;;;5061331;28;20203;-63
2023/08/05 04:12:48;;;;;;;4.97;4.50;;;;;;;;;;5061115;28;20197;-63
2023/08/05 04:15:16;;;;;;;5.55;4.65;;;;;;;;;;5061094;28;20204;-64
2023/08/05 04:17:44;;;;;;;5.35;4.28;;;;;;;;;;5060893;28;20209;-64
2023/08/05 04:20:12;;;;;;;8.57;5.03;;;;;;;;;;5061397;28;20205;-64
2023/08/05 04:22:38;;;;;;;6.28;4.88;;;;;;;;;;5060960;28;20197;-64
2023/08/05 04:25:05;;;;;;;4.78;4.40;;;;;;;;;;5061956;28;20205;-64
2023/08/05 04:27:31;;;;;;;4.65;4.25;;;;;;;;;;5065251;28;20419;-64
2023/08/05 04:29:58;;;;;;;5.25;4.55;;;;;;;;;;5064451;28;20375;-64
2023/08/05 04:32:24;;;;;;;6.82;4.70;;;;;;;;;;5064458;28;20428;-64
2023/08/05 04:34:52;;;;;;;5.35;4.40;;;;;;;;;;5064180;28;20201;-64
2023/08/05 04:37:19;;;;;;;8.57;4.53;;;;;;;;;;5064549;28;20426;-64
2023/08/05 04:39:45;;;;;;;5.60;4.80;;;;;;;;;;5064221;28;20205;-64
2023/08/05 04:42:11;;;;;;;5.57;4.68;;;;;;;;;;5064481;28;20197;-64
2023/08/05 04:44:40;;;;;;;5.45;4.47;;;;;;;;;;5063994;28;20197;-64
2023/08/05 04:47:06;;;;;;;4.45;4.03;;;;;;;;;;5064119;28;20201;-64
2023/08/05 04:49:32;;;;;;;6.70;4.40;;;;;;;;;;5064410;28;20204;-64
2023/08/05 04:52:02;;;;;;;5.35;4.25;;;;;;;;;;5064366;28;20245;-64
2023/08/05 04:54:28;;;;;;;5.85;4.65;;;;;;;;;;5064527;28;20551;-64
2023/08/05 04:56:55;;;;;;;6.05;4.70;;;;;;;;;;5064246;28;20201;-64
2023/08/05 04:59:21;;;;;;;5.13;4.32;;;;;;;;;;5064010;28;20193;-64
2023/08/05 05:01:47;;;;;;;8.02;4.57;;;;;;;;;;5064447;28;20209;-64
2023/08/05 05:04:13;;;;;;;6.97;4.90;;;;;;;;;;5063845;28;20212;-64
2023/08/05 05:06:39;;;;;;;5.22;4.82;;;;;;;;;;5063789;28;20197;-64
2023/08/05 05:09:07;;;;;;;5.63;4.60;;;;;;;;;;5063769;28;20223;-64
2023/08/05 05:11:33;;;;;;;5.18;4.68;;;;;;;;;;5063854;28;20401;-64
2023/08/05 05:14:00;;;;;;;6.40;4.90;;;;;;;;;;5063558;28;20205;-64
2023/08/05 05:16:26;;;;;;;5.03;4.60;;;;;;;;;;5064006;28;20525;-64
2023/08/05 05:18:52;;;;;;;7.13;5.60;;;;;;;;;;5064083;28;20743;-64
2023/08/05 05:21:18;;;;;;;5.20;4.70;;;;;;;;;;5063790;28;20196;-64
2023/08/05 05:23:45;;;;;;;4.80;4.40;;;;;;;;;;5063319;28;20201;-64
2023/08/05 05:26:12;;;;;;;7.20;5.05;;;;;;;;;;5063449;28;20239;-64
2023/08/05 05:28:39;;;;;;;4.88;4.47;;;;;;;;;;5063633;28;20250;-64
2023/08/05 05:31:05;;;;;;;6.25;4.78;;;;;;;;;;5055234;28;20269;-64
2023/08/05 05:33:31;;;;;;;6.75;4.80;;;;;;;;;;5063348;28;20378;-64
2023/08/05 05:35:57;;;;;;;5.72;4.80;;;;;;;;;;5063014;28;20414;-64
2023/08/05 05:38:24;;;;;;;6.97;4.82;;;;;;;;;;5063476;28;20205;-64
2023/08/05 05:40:52;;;;;;;5.25;4.72;;;;;;;;;;5063097;28;20201;-64
2023/08/05 05:43:19;;;;;;;7.30;4.60;;;;;;;;;;5062538;28;20197;-65
2023/08/05 05:45:46;;;;;;;5.15;4.35;;;;;;;;;;5062306;28;20276;-64
2023/08/05 05:48:12;;;;;;;6.22;4.30;;;;;;;;;;5062056;28;20229;-64
2023/08/05 05:50:40;;;;;;;10.88;5.13;;;;;;;;;;5062210;28;20205;-64
2023/08/05 05:53:08;;;;;;;4.97;4.28;;;;;;;;;;5061931;28;20401;-64
2023/08/05 05:55:34;;;;;;;4.85;4.35;;;;;;;;;;5061666;28;20204;-63
2023/08/05 05:58:00;;;;;;;4.57;4.18;;;;;;;;;;5061726;28;20198;-65
2023/08/05 06:00:28;;;;;;;4.85;4.30;;;;;;;;;;5063121;28;20197;-65
2023/08/05 06:02:54;;;;;;;5.30;4.63;;;;;;;;;;5062203;28;20215;-65
2023/08/05 06:05:20;;;;;;;4.90;4.50;;;;;;;;;;5061895;28;20264;-65
2023/08/05 06:07:47;;;;;;;5.03;4.57;;;;;;;;;;5061736;28;20501;-65
2023/08/05 06:10:14;;;;;;;5.50;4.85;;;;;;;;;;5062312;28;20205;-65
2023/08/05 06:12:41;;;;;;;7.70;4.55;;;;;;;;;;5062046;28;20223;-65
2023/08/05 06:15:08;;;;;;;6.22;4.63;;;;;;;;;;5061924;28;20205;-65
2023/08/05 06:17:35;;;;;;;5.50;4.13;;;;;;;;;;5062479;28;20250;-65
2023/08/05 06:20:03;;;;;;;7.30;4.45;;;;;;;;;;5062779;28;20412;-65
2023/08/05 06:22:29;;;;;;;5.78;4.50;;;;;;;;;;5062636;28;20197;-65
2023/08/05 06:24:56;;;;;;;6.75;4.43;;;;;;;;;;5062865;28;20508;-65
2023/08/05 06:27:22;;;;;;;6.13;4.47;;;;;;;;;;5062708;28;20389;-65
2023/08/05 06:29:48;;;;;;;4.85;4.30;;;;;;;;;;5062705;28;20244;-65
2023/08/05 06:32:14;;;;;;;7.72;4.68;;;;;;;;;;5062576;28;20205;-65
2023/08/05 06:34:42;;;;;;;6.47;4.18;;;;;;;;;;5062367;28;20231;-65
2023/08/05 06:37:08;;;;;;;6.53;4.20;;;;;;;;;;5062405;28;20205;-65
2023/08/05 06:39:35;;;;;;;5.35;4.50;;;;;;;;;;5062820;28;20535;-65
2023/08/05 06:42:01;;;;;;;4.30;3.88;;;;;;;;;;5062512;28;20393;-65
2023/08/05 06:44:27;;;;;;;6.03;3.72;;;;;;;;;;5062259;28;20420;-65
2023/08/05 06:46:54;;;;;;;5.25;4.32;;;;;;;;;;5062256;28;20213;-65
2023/08/05 06:49:20;;;;;;;4.03;3.70;;;;;;;;;;5062035;28;20414;-65
2023/08/05 06:51:50;;;;;;;10.52;4.28;;;;;;;;;;5062031;28;20208;-65
2023/08/05 06:54:16;;;;;;;4.43;4.03;;;;;;;;;;5062092;28;20243;-65
2023/08/05 06:56:43;;;;;;;5.65;4.72;;;;;;;;;;5062522;28;20201;-65
2023/08/05 06:59:09;;;;;;;5.82;4.70;;;;;;;;;;5062170;28;20193;-65
2023/08/05 07:01:35;;;;;;;5.25;3.72;;;;;;;;;;5062258;28;20196;-65
2023/08/05 07:04:01;;;;;;;4.20;3.85;;;;;;;;;;5061776;28;20201;-65
2023/08/05 07:06:28;;;;;;;4.88;3.88;;;;;;;;;;5062194;28;20233;-65
2023/08/05 07:08:55;;;;;;;5.13;3.88;;;;;;;;;;5062013;28;20228;-65
2023/08/05 07:11:22;;;;;;;4.00;3.65;;;;;;;;;;5062255;28;20204;-65
2023/08/05 07:13:48;;;;;;;4.88;3.58;;;;;;;;;;5061902;28;20205;-66
2023/08/05 07:16:14;;;;;;;4.45;4.05;;;;;;;;;;5062149;28;20197;-66
2023/08/05 07:18:40;;;;;;;4.55;3.50;;;;;;;;;;5061805;28;20197;-66
2023/08/05 07:21:07;;;;;;;3.63;3.30;;;;;;;;;;5061720;28;20215;-66
2023/08/05 07:23:33;;;;;;;3.72;3.35;;;;;;;;;;5061782;28;20205;-66
2023/08/05 07:26:01;;;;;;;3.80;3.45;;;;;;;;;;5061921;28;20207;-66
2023/08/05 07:28:28;;;;;;;3.78;3.20;;;;;;;;;;5061766;28;20220;-66
2023/08/05 07:31:02;;;;;;;3.20;3.00;;;;;;;;;;5061815;28;20209;-66
2023/08/05 07:33:28;;;;;;;3.88;3.30;;;;;;;;;;5061469;28;20200;-66
2023/08/05 07:35:56;;;;;;;6.22;3.50;;;;;;;;;;5061625;28;20201;-65
2023/08/05 07:38:25;;;;;;;5.75;3.97;;;;;;;;;;5061992;28;20193;-65
2023/08/05 07:40:54;;;;;;;4.40;4.00;;;;;;;;;;5061829;28;20403;-65
2023/08/05 07:43:23;;;;;;;4.97;3.72;;;;;;;;;;5061549;28;20204;-65
2023/08/05 07:45:50;;;;;;;4.60;3.17;;;;;;;;;;5062039;28;20205;-65
2023/08/05 07:48:16;;;;;;;7.47;3.40;;;;;;;;;;5061545;28;20201;-65
2023/08/05 07:50:42;;;;;;;4.75;4.03;;;;;;;;;;5062036;28;20201;-65
2023/08/05 07:53:09;;;;;;;4.20;3.67;;;;;;;;;;5061553;28;20196;-65
2023/08/05 07:55:37;;;;;;;3.33;3.13;;;;;;;;;;5061458;28;20422;-66
2023/08/05 07:58:04;;;;;;;5.55;3.55;;;;;;;;;;5061332;28;20225;-66
2023/08/05 08:00:33;;;;;;;3.70;3.47;;;;;;;;;;5064848;28;20194;-66
2023/08/05 08:02:59;;;;;;;4.00;3.70;;;;;;;;;;5065255;28;20201;-66
2023/08/05 08:05:26;;;;;;;6.75;3.13;;;;;;;;;;5064952;28;20265;-66
2023/08/05 08:07:55;;;;;;;7.20;3.38;;;;;;;;;;5064951;28;20204;-66
2023/08/05 08:10:24;;;;;;;4.38;3.53;;;;;;;;;;5065368;28;20280;-66
2023/08/05 08:12:51;;;;;;;5.13;3.63;;;;;;;;;;5064883;28;20472;-66
2023/08/05 08:15:17;;;;;;;4.82;3.63;;;;;;;;;;5065020;28;20243;-66
2023/08/05 08:17:45;;;;;;;4.03;3.60;;;;;;;;;;5065026;28;20201;-66
2023/08/05 08:20:11;;;;;;;5.32;3.47;;;;;;;;;;5064825;28;20207;-66
2023/08/05 08:22:37;;;;;;;4.20;3.40;;;;;;;;;;5064855;28;20204;-66
2023/08/05 08:25:04;;;;;;;4.22;3.50;;;;;;;;;;5064947;28;20215;-66
2023/08/05 08:27:29;;;;;;;3.03;2.83;;;;;;;;;;5064645;28;20221;-66
2023/08/05 08:29:56;;;;;;;7.20;3.38;;;;;;;;;;5064981;28;20441;-66
2023/08/05 08:32:22;;;;;;;3.90;3.10;;;;;;;;;;5064615;28;20199;-66
2023/08/05 08:34:50;;;;;;;5.10;3.05;;;;;;;;;;5064660;28;20224;-66
2023/08/05 08:37:16;;;;;;;7.65;3.42;;;;;;;;;;5056548;28;20207;-66
2023/08/05 08:39:43;;;;;;;5.93;2.63;;;;;;;;;;5064497;28;20197;-66
2023/08/05 08:42:09;;;;;;;2.92;2.60;;;;;;;;;;5064227;28;20279;-66
2023/08/05 08:44:36;;;;;;;2.90;2.80;;;;;;;;;;5064779;28;20204;-66
2023/08/05 08:47:02;;;;;;;4.82;2.67;;;;;;;;;;5064413;28;20508;-66
2023/08/05 08:49:28;;;;;;;3.05;2.50;;;;;;;;;;5064125;28;20217;-66
2023/08/05 08:51:56;;;;;;;3.00;2.80;;;;;;;;;;5064302;28;20438;-66
2023/08/05 08:54:26;;;;;;;3.17;2.75;;;;;;;;;;5064023;28;20203;-66
2023/08/05 08:56:52;;;;;;;2.90;2.70;;;;;;;;;;5064072;28;20196;-66
2023/08/05 08:59:19;;;;;;;7.50;3.05;;;;;;;;;;5064346;28;20511;-66
2023/08/05 09:01:46;;;;;;;3.55;2.60;;;;;;;;;;5064282;28;20205;-66
2023/08/05 09:04:12;;;;;;;2.50;2.40;;;;;;;;;;5063800;28;20568;-66
2023/08/05 09:06:39;;;;;;;12.38;2.42;;;;;;;;;;5064006;28;20197;-66
2023/08/05 09:09:06;;;;;;;2.28;2.17;;;;;;;;;;5063832;28;20267;-66
2023/08/05 09:11:33;;;;;;;2.67;2.42;;;;;;;;;;5063053;28;20215;-66
2023/08/05 09:13:59;;;;;;;3.70;2.40;;;;;;;;;;5063759;28;20497;-66
2023/08/05 09:16:26;;;;;;;5.80;2.92;;;;;;;;;;5063891;28;20552;-66
2023/08/05 09:18:53;;;;;;;4.80;2.72;;;;;;;;;;5063923;28;20422;-66
2023/08/05 09:21:21;;;;;;;2.38;2.17;;;;;;;;;;5055769;28;20203;-66
2023/08/05 09:23:48;;;;;;;3.05;2.15;;;;;;;;;;5063493;28;20208;-66
2023/08/05 09:26:25;;;;;;;2.15;2.05;;;;;;;;;;5063659;28;20193;-66
2023/08/05 09:28:52;;;;;;;4.53;2.45;;;;;;;;;;5063598;28;20228;-66
2023/08/05 09:31:18;;;;;;;4.45;2.30;;;;;;;;;;5063477;28;20203;-66
2023/08/05 09:33:44;;;;;;;3.00;2.80;;;;;;;;;;5063421;28;20420;-66
2023/08/05 09:36:12;;;;;;;2.60;2.40;;;;;;;;;;5063298;28;20207;-66
2023/08/05 09:38:39;;;;;;;3.00;2.80;;;;;;;;;;5063564;28;20201;-66
2023/08/05 09:41:06;;;;;;;18.63;3.63;;;;;;;;;;5063562;28;20209;-66
2023/08/05 09:43:35;;;;;;;2.28;2.13;;;;;;;;;;5063180;28;20217;-66
2023/08/05 09:46:04;;;;;;;2.03;1.92;;;;;;;;;;5063230;28;20237;-66
2023/08/05 09:48:35;;;;;;;2.38;2.00;;;;;;;;;;5063570;28;20209;-66
2023/08/05 09:51:03;;;;;;;2.58;1.80;;;;;;;;;;5063394;28;20224;-66
2023/08/05 09:53:32;;;;;;;3.25;1.90;;;;;;;;;;5063108;28;20200;-66
2023/08/05 09:55:59;;;;;;;1.92;1.83;;;;;;;;;;5063394;28;20269;-66
2023/08/05 09:58:25;;;;;;;4.45;1.88;;;;;;;;;;5063239;28;20504;-66
2023/08/05 10:00:53;;;;;;;2.35;1.80;;;;;;;;;;5063156;28;20495;-66
2023/08/05 10:03:19;;;;;;;3.83;1.90;;;;;;;;;;5062788;28;20204;-66
2023/08/05 10:05:47;;;;;;;3.17;1.50;;;;;;;;;;5062798;28;20201;-66
2023/08/05 10:08:13;;;;;;;5.95;1.88;;;;;;;;;;5062843;28;20219;-66
2023/08/05 10:10:40;;;;;;;2.28;1.98;;;;;;;;;;5063020;28;20258;-68
2023/08/05 10:13:08;;;;;;;2.45;2.25;;;;;;;;;;5063064;28;20517;-66
2023/08/05 10:15:37;;;;;;;2.10;1.63;;;;;;;;;;5062602;28;20243;-67
2023/08/05 10:18:08;;;;;;;2.10;1.90;;;;;;;;;;5062378;28;20196;-67
2023/08/05 10:20:35;;;;;;;2.00;1.90;;;;;;;;;;5063005;28;20489;-67
2023/08/05 10:23:03;;;;;;;2.40;2.20;;;;;;;;;;5062760;28;20212;-67
2023/08/05 10:25:38;;;;;;;2.00;1.90;;;;;;;;;;5062601;28;20395;-67
2023/08/05 10:28:05;;;;;;;1.98;1.90;;;;;;;;;;5062506;28;20274;-67
2023/08/05 10:30:31;;;;;;;1.90;1.80;;;;;;;;;;5062307;28;20547;-67
2023/08/05 10:32:58;;;;;;;3.25;1.88;;;;;;;;;;5062661;28;20200;-67
2023/08/05 10:35:25;;;;;;;1.52;1.48;;;;;;;;;;5062949;28;20521;-67
2023/08/05 10:38:04;;;;;;;4.13;1.70;;;;;;;;;;5062633;28;20201;-67
2023/08/05 10:40:47;;;;;;;1.85;1.63;;;;;;;;;;5055491;28;20197;-67
2023/08/05 10:43:25;;;;;;;2.25;1.67;;;;;;;;;;5062570;28;20412;-67
2023/08/05 10:45:52;;;;;;;1.60;1.50;;;;;;;;;;5062389;28;20200;-67
2023/08/05 10:48:18;;;;;;;1.42;1.40;;;;;;;;;;5062256;28;20306;-67
2023/08/05 10:50:49;;;;;;;1.25;1.20;;;;;;;;;;5062248;28;20248;-66
2023/08/05 10:53:15;;;;;;;1.60;1.50;;;;;;;;;;5062231;28;20207;-65
2023/08/05 10:55:45;;;;;;;1.98;1.80;;;;;;;;;;5061952;28;20267;-65
2023/08/05 10:58:11;;;;;;;1.60;1.23;;;;;;;;;;5062444;28;20205;-67
2023/08/05 11:00:39;;;;;;;1.95;1.85;;;;;;;;;;5062155;28;20399;-67
2023/08/05 11:03:25;;;;;;;3.55;1.80;;;;;;;;;;5062142;28;20200;-66
2023/08/05 11:05:53;;;;;;;3.72;1.77;;;;;;;;;;5062206;28;20201;-67
2023/08/05 11:08:20;;;;;;;1.80;1.50;;;;;;;;;;5062231;28;20420;-67
2023/08/05 11:10:47;;;;;;;1.58;1.48;;;;;;;;;;5062252;28;20221;-67
2023/08/05 11:13:14;;;;;;;2.00;1.63;;;;;;;;;;5062081;28;20205;-67
2023/08/05 11:15:40;;;;;;;1.77;1.67;;;;;;;;;;5061952;28;20200;-66
2023/08/05 11:18:07;;;;;;;2.35;1.50;;;;;;;;;;5061895;28;20201;-67
2023/08/05 11:20:34;;;;;;;1.50;1.50;;;;;;;;;;5062127;28;20193;-65
2023/08/05 11:23:02;;;;;;;1.90;1.80;;;;;;;;;;5061866;28;20201;-65
2023/08/05 11:25:29;;;;;;;4.03;1.73;;;;;;;;;;5061924;28;20197;-65
2023/08/05 11:27:55;;;;;;;2.67;1.58;;;;;;;;;;5062185;28;20292;-66
2023/08/05 11:30:22;;;;;;;1.63;1.50;;;;;;;;;;5061925;28;20481;-67
2023/08/05 11:32:49;;;;;;;2.30;1.40;;;;;;;;;;5061832;28;20220;-67
2023/08/05 11:35:15;;;;;;;1.75;1.65;;;;;;;;;;5065320;28;20395;-67
2023/08/05 11:37:41;;;;;;;2.35;1.40;;;;;;;;;;5066234;28;20201;-67
2023/08/05 11:40:09;;;;;;;1.90;1.80;;;;;;;;;;5066123;28;20596;-67
2023/08/05 11:42:36;;;;;;;1.42;1.42;;;;;;;;;;5065892;28;20197;-67
2023/08/05 11:45:03;;;;;;;1.60;1.50;;;;;;;;;;5065606;28;20200;-67
2023/08/05 11:47:30;;;;;;;3.65;2.15;;;;;;;;;;5065708;28;20200;-67
2023/08/05 11:49:56;;;;;;;2.20;1.50;;;;;;;;;;5065586;28;20450;-67
2023/08/05 11:52:22;;;;;;;1.80;1.70;;;;;;;;;;5065571;28;20226;-67
2023/08/05 11:54:56;;;;;;;1.65;1.55;;;;;;;;;;5065304;28;20236;-67
2023/08/05 11:57:23;;;;;;;2.33;1.60;;;;;;;;;;5065993;28;20213;-67
2023/08/05 11:59:51;;;;;;;1.88;1.35;;;;;;;;;;5065417;28;20209;-68
2023/08/05 12:02:18;;;;;;;2.13;1.42;;;;;;;;;;5065315;28;20413;-67
2023/08/05 12:04:44;;;;;;;1.27;1.17;;;;;;;;;;5065095;28;20200;-67
2023/08/05 12:07:11;;;;;;;1.67;1.25;;;;;;;;;;5065440;28;20208;-67
2023/08/05 12:09:37;;;;;;;1.65;1.55;;;;;;;;;;5065342;28;20197;-66
2023/08/05 12:12:05;;;;;;;1.42;1.42;;;;;;;;;;5065022;28;20505;-67
2023/08/05 12:14:32;;;;;;;1.52;1.42;;;;;;;;;;5064789;28;20197;-67
2023/08/05 12:16:59;;;;;;;1.30;1.30;;;;;;;;;;5065061;28;20204;-65
2023/08/05 12:19:26;;;;;;;1.40;1.40;;;;;;;;;;5065083;28;20268;-65
2023/08/05 12:21:52;;;;;;;2.97;1.30;;;;;;;;;;5065118;28;20204;-65
2023/08/05 12:24:18;;;;;;;1.17;1.17;;;;;;;;;;5064739;28;20200;-65
2023/08/05 12:26:45;;;;;;;1.30;1.30;;;;;;;;;;5064998;28;20399;-66
2023/08/05 12:29:11;;;;;;;1.20;1.20;;;;;;;;;;5064734;28;20217;-67
2023/08/05 12:31:38;;;;;;;1.33;1.23;;;;;;;;;;5065150;28;20217;-67
2023/08/05 12:34:05;;;;;;;1.48;1.38;;;;;;;;;;5064529;28;20201;-68
2023/08/05 12:36:31;;;;;;;1.90;1.40;;;;;;;;;;5064884;28;20211;-65
2023/08/05 12:38:58;;;;;;;1.40;1.30;;;;;;;;;;5064908;28;20603;-67
2023/08/05 12:41:24;;;;;;;1.20;1.20;;;;;;;;;;5064743;28;20369;-67
2023/08/05 12:43:50;;;;;;;1.10;1.10;;;;;;;;;;5064405;28;20246;-67
2023/08/05 12:46:16;;;;;;;1.40;1.35;;;;;;;;;;5063592;28;20509;-67
2023/08/05 12:48:44;;;;;;;1.30;1.30;;;;;;;;;;5064529;28;20377;-65
2023/08/05 12:51:10;;;;;;;1.60;1.50;;;;;;;;;;5064509;28;20224;-66
2023/08/05 12:53:38;;;;;;;3.33;1.40;;;;;;;;;;5064480;28;20196;-67
2023/08/05 12:56:04;;;;;;;1.30;1.25;;;;;;;;;;5064477;28;20228;-66
2023/08/05 12:58:31;;;;;;;2.67;1.63;;;;;;;;;;5056220;28;20206;-65
2023/08/05 13:00:57;;;;;;;1.70;1.60;;;;;;;;;;5064555;28;20210;-65
2023/08/05 13:03:23;;;;;;;2.85;1.50;;;;;;;;;;5064236;28;20415;-66
2023/08/05 13:05:51;;;;;;;1.45;1.35;;;;;;;;;;5064446;28;20242;-65
2023/08/05 13:08:17;;;;;;;1.42;1.42;;;;;;;;;;5064331;28;20505;-65
2023/08/05 13:10:44;;;;;;;2.28;1.15;;;;;;;;;;5064115;28;20389;-65
2023/08/05 13:13:10;;;;;;;1.20;1.20;;;;;;;;;;5063996;28;20231;-65
2023/08/05 13:15:37;;;;;;;1.42;1.42;;;;;;;;;;5063999;28;20197;-65
2023/08/05 13:18:03;;;;;;;2.60;1.60;;;;;;;;;;5064256;28;20200;-65
2023/08/05 13:20:30;;;;;;;1.83;1.70;;;;;;;;;;5063977;28;20199;-65
2023/08/05 13:22:57;;;;;;;1.80;1.60;;;;;;;;;;5063909;28;20201;-65
2023/08/05 13:25:24;;;;;;;4.15;1.45;;;;;;;;;;5063718;28;20201;-65
2023/08/05 13:27:50;;;;;;;3.10;1.55;;;;;;;;;;5063706;28;20223;-65
2023/08/05 13:30:16;;;;;;;1.55;1.55;;;;;;;;;;5063841;28;20536;-65
2023/08/05 13:32:42;;;;;;;2.85;1.50;;;;;;;;;;5063897;28;20200;-65
2023/08/05 13:35:09;;;;;;;1.42;1.33;;;;;;;;;;5063324;28;20209;-65
2023/08/05 13:37:35;;;;;;;4.07;1.55;;;;;;;;;;5063679;28;20197;-65
2023/08/05 13:40:04;;;;;;;1.85;1.55;;;;;;;;;;5063662;28;20200;-65
2023/08/05 13:42:30;;;;;;;1.65;1.52;;;;;;;;;;5063643;28;20204;-65
2023/08/05 13:44:56;;;;;;;1.95;1.35;;;;;;;;;;5063540;28;20578;-65
2023/08/05 13:47:23;;;;;;;2.47;1.50;;;;;;;;;;5063378;28;20224;-65
2023/08/05 13:49:50;;;;;;;1.90;1.80;;;;;;;;;;5063461;28;20238;-65
2023/08/05 13:52:16;;;;;;;1.90;1.80;;;;;;;;;;5063316;28;20220;-65
2023/08/05 13:54:43;;;;;;;2.00;1.90;;;;;;;;;;5063604;28;20214;-65
2023/08/05 13:57:10;;;;;;;1.50;1.50;;;;;;;;;;5063128;28;20497;-65
2023/08/05 13:59:36;;;;;;;1.98;1.52;;;;;;;;;;5063318;28;20219;-65
2023/08/05 14:02:03;;;;;;;2.75;1.70;;;;;;;;;;5063264;28;20196;-65
2023/08/05 14:04:29;;;;;;;1.58;1.48;;;;;;;;;;5062891;28;20205;-65
2023/08/05 14:06:55;;;;;;;2.13;1.52;;;;;;;;;;5063069;28;20224;-65
2023/08/05 14:09:22;;;;;;;1.67;1.58;;;;;;;;;;5062934;28;20196;-65
2023/08/05 14:11:48;;;;;;;1.73;1.40;;;;;;;;;;5063069;28;20551;-65
2023/08/05 14:14:16;;;;;;;2.17;1.63;;;;;;;;;;5062972;28;20205;-65
2023/08/05 14:16:42;;;;;;;2.70;1.85;;;;;;;;;;5062908;28;20208;-65
2023/08/05 14:19:08;;;;;;;3.30;2.10;;;;;;;;;;5062889;28;20340;-65
2023/08/05 14:21:34;;;;;;;2.97;2.15;;;;;;;;;;5062712;28;20401;-65
2023/08/05 14:24:01;;;;;;;2.17;2.08;;;;;;;;;;5062542;28;20267;-65
2023/08/05 14:26:27;;;;;;;4.10;2.00;;;;;;;;;;5062822;28;20201;-65
2023/08/05 14:28:54;;;;;;;1.20;1.20;;;;;;;;;;5062833;28;20220;-65
2023/08/05 14:31:21;;;;;;;1.83;1.67;;;;;;;;;;5062588;28;20248;-65
2023/08/05 14:33:48;;;;;;;2.72;1.42;;;;;;;;;;5062426;28;20208;-65
2023/08/05 14:36:14;;;;;;;1.77;1.77;;;;;;;;;;5062515;28;20201;-65
2023/08/05 14:38:40;;;;;;;1.52;1.42;;;;;;;;;;5062619;28;20201;-65
2023/08/05 14:41:08;;;;;;;1.90;1.55;;;;;;;;;;5062590;28;20221;-65